Time;durP1;ratioP1;P1;durP2;ratioP2;P2;SDS_P1;SDS_P2;PMS_P1;PMS_P2;Temp;Humidity;BMP_temperature;BMP_pressure;BME280_temperature;BME280_humidity;BME280_pressure;Samples;Min_cycle;Max_cycle;Signal;HPM_P1;HPM_P2
2021/06/28 00:00:45;;;;;;;7.15;2.58;;;;;;;;;;5085477;28;20032;-65
2021/06/28 00:03:12;;;;;;;5.72;2.22;;;;;;;;;;5077458;28;20089;-67
2021/06/28 00:05:39;;;;;;;7.10;3.40;;;;;;;;;;5082306;28;20029;-67
2021/06/28 00:08:06;;;;;;;8.32;2.88;;;;;;;;;;5093761;28;20048;-67
2021/06/28 00:10:33;;;;;;;3.47;2.22;;;;;;;;;;5087096;28;20108;-67
2021/06/28 00:13:01;;;;;;;12.60;3.10;;;;;;;;;;5088925;28;22614;-65
2021/06/28 00:15:30;;;;;;;7.15;2.95;;;;;;;;;;5073386;28;20035;-66
2021/06/28 00:17:57;;;;;;;8.68;2.78;;;;;;;;;;5070272;28;20063;-66
2021/06/28 00:20:24;;;;;;;5.35;2.70;;;;;;;;;;5071480;28;20500;-67
2021/06/28 00:22:52;;;;;;;9.07;3.03;;;;;;;;;;5070054;28;20037;-68
2021/06/28 00:25:20;;;;;;;8.25;2.70;;;;;;;;;;5067302;28;20037;-69
2021/06/28 00:27:48;;;;;;;8.35;2.60;;;;;;;;;;5073758;28;20033;-68
2021/06/28 00:30:17;;;;;;;8.88;2.88;;;;;;;;;;5074057;28;20037;-68
2021/06/28 00:32:45;;;;;;;6.13;2.85;;;;;;;;;;5051866;28;20040;-68
2021/06/28 00:35:13;;;;;;;10.00;3.60;;;;;;;;;;5068099;28;20480;-69
2021/06/28 00:37:41;;;;;;;4.80;3.10;;;;;;;;;;5074237;28;20165;-69
2021/06/28 00:40:09;;;;;;;5.45;2.30;;;;;;;;;;5072835;28;20101;-69
2021/06/28 00:42:37;;;;;;;6.43;2.60;;;;;;;;;;5075269;28;20032;-69
2021/06/28 00:45:16;;;;;;;8.95;2.83;;;;;;;;;;5072100;28;20045;-67
2021/06/28 00:47:43;;;;;;;5.55;2.40;;;;;;;;;;5072381;28;20621;-70
2021/06/28 00:50:10;;;;;;;7.28;2.33;;;;;;;;;;5070225;28;20076;-70
2021/06/28 00:52:39;;;;;;;8.10;3.55;;;;;;;;;;5071377;28;20040;-68
2021/06/28 00:55:07;;;;;;;8.05;2.53;;;;;;;;;;5069474;28;20040;-68
2021/06/28 00:57:34;;;;;;;7.05;3.15;;;;;;;;;;5063847;28;20552;-68
2021/06/28 01:00:01;;;;;;;9.25;2.83;;;;;;;;;;5066206;28;20036;-68
2021/06/28 01:02:29;;;;;;;6.90;2.90;;;;;;;;;;5067542;28;20029;-69
2021/06/28 01:04:56;;;;;;;8.10;3.10;;;;;;;;;;5066239;28;20536;-69
2021/06/28 01:07:23;;;;;;;10.25;3.25;;;;;;;;;;5068668;28;20060;-69
2021/06/28 01:09:50;;;;;;;15.68;5.25;;;;;;;;;;5049875;28;20037;-69
2021/06/28 01:12:17;;;;;;;14.02;5.53;;;;;;;;;;5063158;28;20101;-69
2021/06/28 01:14:44;;;;;;;16.48;7.43;;;;;;;;;;5067174;28;20029;-70
2021/06/28 01:17:12;;;;;;;10.38;4.72;;;;;;;;;;5066734;28;20058;-70
2021/06/28 01:19:45;;;;;;;9.55;5.00;;;;;;;;;;5065449;28;20032;-69
2021/06/28 01:22:15;;;;;;;10.43;3.58;;;;;;;;;;5070101;28;20079;-69
2021/06/28 01:24:42;;;;;;;8.23;4.30;;;;;;;;;;5067786;28;20028;-70
2021/06/28 01:27:09;;;;;;;8.30;3.95;;;;;;;;;;5068456;28;20108;-70
2021/06/28 01:29:36;;;;;;;10.75;4.82;;;;;;;;;;5068526;28;20528;-71
2021/06/28 01:32:03;;;;;;;8.77;4.50;;;;;;;;;;5068454;28;20037;-70
2021/06/28 01:34:30;;;;;;;13.60;4.85;;;;;;;;;;5066174;28;20053;-71
2021/06/28 01:37:11;;;;;;;12.45;7.30;;;;;;;;;;5068850;28;20443;-71
2021/06/28 01:39:39;;;;;;;21.75;8.73;;;;;;;;;;5064790;28;20063;-71
2021/06/28 01:42:07;;;;;;;10.05;5.45;;;;;;;;;;5067453;28;20111;-72
2021/06/28 01:44:34;;;;;;;14.60;5.43;;;;;;;;;;5063401;28;20039;-71
2021/06/28 01:47:01;;;;;;;13.98;5.97;;;;;;;;;;5068225;28;20039;-72
2021/06/28 01:49:29;;;;;;;16.17;5.00;;;;;;;;;;5036315;28;20077;-71
2021/06/28 01:51:56;;;;;;;11.90;4.47;;;;;;;;;;5056965;28;20115;-71
2021/06/28 01:54:23;;;;;;;9.10;4.70;;;;;;;;;;5052853;28;20034;-71
2021/06/28 01:56:50;;;;;;;17.25;6.20;;;;;;;;;;5054430;28;20032;-71
2021/06/28 01:59:17;;;;;;;10.88;5.25;;;;;;;;;;5057539;28;20058;-70
2021/06/28 02:01:44;;;;;;;13.13;5.50;;;;;;;;;;5040399;28;20139;-71
2021/06/28 02:04:18;;;;;;;12.90;5.07;;;;;;;;;;5051525;28;20104;-71
2021/06/28 02:06:45;;;;;;;11.70;5.07;;;;;;;;;;5046426;28;20531;-71
2021/06/28 02:09:12;;;;;;;17.70;6.20;;;;;;;;;;5055463;28;20410;-71
2021/06/28 02:11:39;;;;;;;11.25;5.80;;;;;;;;;;5066050;28;20367;-71
2021/06/28 02:14:07;;;;;;;10.13;5.00;;;;;;;;;;5065137;28;20044;-71
2021/06/28 02:16:34;;;;;;;13.40;5.85;;;;;;;;;;5064505;28;20477;-70
2021/06/28 02:19:01;;;;;;;11.48;4.88;;;;;;;;;;5050198;28;20044;-70
2021/06/28 02:21:28;;;;;;;11.13;5.68;;;;;;;;;;5061575;28;20071;-72
2021/06/28 02:23:55;;;;;;;10.10;5.20;;;;;;;;;;5044916;28;20183;-71
2021/06/28 02:26:22;;;;;;;10.40;4.82;;;;;;;;;;5069962;28;20111;-70
2021/06/28 02:28:50;;;;;;;9.85;4.82;;;;;;;;;;5036936;28;20126;-71
2021/06/28 02:31:19;;;;;;;7.30;3.83;;;;;;;;;;5058068;28;20032;-70
2021/06/28 02:33:47;;;;;;;10.13;4.20;;;;;;;;;;5055881;28;20026;-72
2021/06/28 02:36:14;;;;;;;13.18;3.95;;;;;;;;;;5055583;28;20024;-72
2021/06/28 02:38:42;;;;;;;9.98;4.25;;;;;;;;;;5058260;28;20511;-71
2021/06/28 02:41:10;;;;;;;9.88;4.25;;;;;;;;;;5072100;28;20043;-71
2021/06/28 02:43:38;;;;;;;8.93;4.03;;;;;;;;;;5058043;28;20039;-71
2021/06/28 02:46:05;;;;;;;13.52;5.38;;;;;;;;;;5061203;28;20028;-71
2021/06/28 02:48:32;;;;;;;12.35;5.57;;;;;;;;;;5059333;28;20137;-71
2021/06/28 02:51:00;;;;;;;12.45;5.13;;;;;;;;;;5071245;28;20439;-71
2021/06/28 02:53:27;;;;;;;11.23;4.95;;;;;;;;;;5072568;28;20032;-71
2021/06/28 02:55:54;;;;;;;12.52;5.93;;;;;;;;;;5055482;28;20055;-72
2021/06/28 02:58:21;;;;;;;11.98;4.60;;;;;;;;;;5073164;28;20029;-72
2021/06/28 03:00:48;;;;;;;8.70;5.28;;;;;;;;;;5071907;28;20033;-72
2021/06/28 03:03:16;;;;;;;20.58;6.47;;;;;;;;;;5071823;28;20028;-72
2021/06/28 03:05:43;;;;;;;10.85;5.03;;;;;;;;;;5067804;28;20040;-71
2021/06/28 03:08:11;;;;;;;10.60;6.18;;;;;;;;;;5073717;28;20032;-72
2021/06/28 03:10:38;;;;;;;10.75;5.40;;;;;;;;;;5072074;28;20463;-72
2021/06/28 03:13:08;;;;;;;16.73;5.97;;;;;;;;;;5073144;28;20032;-72
2021/06/28 03:15:35;;;;;;;10.75;6.22;;;;;;;;;;5054492;28;20037;-72
2021/06/28 03:18:02;;;;;;;12.55;6.10;;;;;;;;;;5054839;28;20500;-72
2021/06/28 03:20:29;;;;;;;11.88;5.90;;;;;;;;;;5070280;28;20131;-72
2021/06/28 03:22:56;;;;;;;13.75;6.35;;;;;;;;;;5070396;28;20107;-71
2021/06/28 03:25:23;;;;;;;16.25;6.43;;;;;;;;;;5070122;28;20032;-70
2021/06/28 03:27:50;;;;;;;12.02;5.88;;;;;;;;;;5068944;28;20071;-70
2021/06/28 03:30:18;;;;;;;16.40;5.38;;;;;;;;;;5069356;28;20542;-70
2021/06/28 03:32:46;;;;;;;8.65;4.63;;;;;;;;;;5069725;28;20033;-70
2021/06/28 03:35:14;;;;;;;12.88;5.30;;;;;;;;;;5069758;28;20416;-70
2021/06/28 03:37:41;;;;;;;14.55;4.80;;;;;;;;;;5071162;28;20032;-70
2021/06/28 03:40:09;;;;;;;10.55;4.70;;;;;;;;;;5070763;28;20039;-70
2021/06/28 03:42:37;;;;;;;12.80;5.35;;;;;;;;;;5065717;28;20048;-70
2021/06/28 03:45:08;;;;;;;10.80;5.07;;;;;;;;;;5070700;28;20075;-70
2021/06/28 03:47:35;;;;;;;10.63;4.75;;;;;;;;;;5068370;28;20033;-70
2021/06/28 03:50:03;;;;;;;14.48;4.95;;;;;;;;;;5067255;28;20044;-70
2021/06/28 03:52:30;;;;;;;14.48;5.03;;;;;;;;;;5071658;28;20453;-71
2021/06/28 03:54:57;;;;;;;13.93;4.95;;;;;;;;;;5051751;28;20044;-71
2021/06/28 03:57:24;;;;;;;9.27;4.75;;;;;;;;;;5070580;28;20100;-71
2021/06/28 03:59:51;;;;;;;9.18;4.78;;;;;;;;;;5061503;28;20044;-71
2021/06/28 04:02:18;;;;;;;17.83;4.95;;;;;;;;;;5055709;28;20040;-71
2021/06/28 04:04:49;;;;;;;12.35;4.10;;;;;;;;;;5060036;28;20712;-70
2021/06/28 04:07:19;;;;;;;13.90;4.68;;;;;;;;;;5056884;28;20496;-71
2021/06/28 04:09:46;;;;;;;10.38;3.65;;;;;;;;;;5069205;28;20060;-71
2021/06/28 04:12:14;;;;;;;9.07;4.38;;;;;;;;;;5053986;28;20566;-70
2021/06/28 04:14:41;;;;;;;10.93;3.47;;;;;;;;;;5069890;28;20452;-70
2021/06/28 04:17:09;;;;;;;7.90;4.13;;;;;;;;;;5071895;28;20047;-70
2021/06/28 04:19:36;;;;;;;8.70;4.10;;;;;;;;;;5065944;28;20499;-70
2021/06/28 04:22:03;;;;;;;16.35;3.80;;;;;;;;;;5070196;28;20174;-70
2021/06/28 04:24:30;;;;;;;12.18;4.22;;;;;;;;;;5056378;28;20097;-70
2021/06/28 04:26:58;;;;;;;11.90;3.70;;;;;;;;;;5074713;28;20043;-70
2021/06/28 04:29:25;;;;;;;11.27;4.13;;;;;;;;;;5060458;28;20036;-70
2021/06/28 04:31:53;;;;;;;12.48;3.47;;;;;;;;;;5071400;28;20517;-70
2021/06/28 04:34:20;;;;;;;10.73;2.72;;;;;;;;;;5060443;28;20063;-70
2021/06/28 04:36:48;;;;;;;21.55;3.78;;;;;;;;;;5060885;28;20048;-70
2021/06/28 04:39:15;;;;;;;11.43;2.55;;;;;;;;;;5065037;28;20041;-70
2021/06/28 04:41:42;;;;;;;12.13;2.17;;;;;;;;;;5064734;28;20032;-70
2021/06/28 04:44:09;;;;;;;11.48;1.67;;;;;;;;;;5051871;28;20039;-70
2021/06/28 04:46:36;;;;;;;13.60;1.90;;;;;;;;;;5070065;28;20039;-70
2021/06/28 04:49:04;;;;;;;9.13;1.60;;;;;;;;;;5064944;28;20127;-70
2021/06/28 04:51:32;;;;;;;8.60;1.45;;;;;;;;;;5067825;28;20070;-70
2021/06/28 04:54:00;;;;;;;9.52;1.42;;;;;;;;;;5065665;28;20032;-70
2021/06/28 04:56:27;;;;;;;11.82;1.75;;;;;;;;;;5066972;28;20029;-70
2021/06/28 04:58:54;;;;;;;9.05;1.63;;;;;;;;;;5068815;28;20183;-70
2021/06/28 05:01:21;;;;;;;11.18;2.22;;;;;;;;;;5049766;28;20093;-70
2021/06/28 05:03:48;;;;;;;10.63;1.27;;;;;;;;;;5070827;28;20083;-70
2021/06/28 05:06:16;;;;;;;8.63;1.45;;;;;;;;;;5065892;28;20029;-70
2021/06/28 05:08:43;;;;;;;6.63;1.60;;;;;;;;;;5064837;28;20040;-71
2021/06/28 05:11:10;;;;;;;8.63;1.85;;;;;;;;;;5067436;28;20037;-70
2021/06/28 05:13:37;;;;;;;9.57;1.67;;;;;;;;;;5063336;28;20504;-71
2021/06/28 05:16:04;;;;;;;8.48;1.80;;;;;;;;;;5049921;28;20048;-70
2021/06/28 05:18:31;;;;;;;11.13;1.83;;;;;;;;;;5067585;28;20044;-70
2021/06/28 05:20:58;;;;;;;16.40;2.03;;;;;;;;;;5069922;28;20065;-70
2021/06/28 05:23:26;;;;;;;5.90;1.30;;;;;;;;;;5049162;28;20029;-70
2021/06/28 05:25:54;;;;;;;9.27;1.30;;;;;;;;;;5082498;28;20041;-70
2021/06/28 05:28:22;;;;;;;7.35;1.35;;;;;;;;;;5074303;28;20419;-70
2021/06/28 05:30:49;;;;;;;9.75;2.50;;;;;;;;;;5051311;28;20028;-70
2021/06/28 05:33:16;;;;;;;12.40;2.67;;;;;;;;;;5062395;28;20039;-70
2021/06/28 05:35:43;;;;;;;7.07;2.08;;;;;;;;;;5083611;28;20142;-70
2021/06/28 05:38:10;;;;;;;10.68;2.05;;;;;;;;;;5057343;28;20090;-70
2021/06/28 05:40:38;;;;;;;8.10;2.08;;;;;;;;;;5062807;28;20039;-70
2021/06/28 05:43:05;;;;;;;8.68;1.75;;;;;;;;;;5072168;28;20032;-70
2021/06/28 05:45:32;;;;;;;7.05;1.42;;;;;;;;;;5059835;28;20433;-70
2021/06/28 05:47:59;;;;;;;7.43;1.35;;;;;;;;;;5071948;28;20036;-70
2021/06/28 05:50:27;;;;;;;7.93;1.27;;;;;;;;;;5079358;28;20031;-70
2021/06/28 05:52:54;;;;;;;8.80;1.92;;;;;;;;;;5095825;28;20032;-69
2021/06/28 05:55:22;;;;;;;10.93;1.23;;;;;;;;;;5055852;28;20124;-69
2021/06/28 05:57:50;;;;;;;8.82;1.75;;;;;;;;;;5069163;28;20044;-69
2021/06/28 06:00:19;;;;;;;7.95;1.52;;;;;;;;;;5067224;28;20040;-69
2021/06/28 06:02:46;;;;;;;16.27;1.70;;;;;;;;;;5075433;28;20388;-69
2021/06/28 06:05:13;;;;;;;12.40;1.85;;;;;;;;;;5071674;28;20484;-69
2021/06/28 06:07:41;;;;;;;10.75;1.70;;;;;;;;;;5073549;28;20040;-69
2021/06/28 06:10:09;;;;;;;18.13;1.98;;;;;;;;;;5070695;28;20516;-69
2021/06/28 06:12:36;;;;;;;7.82;1.50;;;;;;;;;;5076101;28;20102;-69
2021/06/28 06:15:05;;;;;;;9.50;1.30;;;;;;;;;;5067805;28;20029;-71
2021/06/28 06:17:32;;;;;;;10.98;2.45;;;;;;;;;;5070451;28;20033;-70
2021/06/28 06:19:59;;;;;;;10.75;1.98;;;;;;;;;;5065122;28;20037;-70
2021/06/28 06:22:27;;;;;;;13.27;2.88;;;;;;;;;;5068254;28;20055;-68
2021/06/28 06:24:54;;;;;;;7.43;1.85;;;;;;;;;;5064354;28;20028;-69
2021/06/28 06:27:21;;;;;;;10.73;2.15;;;;;;;;;;5065706;28;20501;-71
2021/06/28 06:29:48;;;;;;;14.48;2.47;;;;;;;;;;5070753;28;20040;-69
2021/06/28 06:32:15;;;;;;;12.00;2.88;;;;;;;;;;5053024;28;20032;-71
2021/06/28 06:34:42;;;;;;;11.43;2.17;;;;;;;;;;5071464;28;20062;-71
2021/06/28 06:37:10;;;;;;;11.80;2.35;;;;;;;;;;5072593;28;20035;-71
2021/06/28 06:39:37;;;;;;;10.77;2.05;;;;;;;;;;5082229;28;20037;-71
2021/06/28 06:42:04;;;;;;;19.20;3.28;;;;;;;;;;5072132;28;20029;-70
2021/06/28 06:44:32;;;;;;;10.40;2.75;;;;;;;;;;5071318;28;20036;-71
2021/06/28 06:46:59;;;;;;;9.48;2.00;;;;;;;;;;5055589;28;20059;-71
2021/06/28 06:49:26;;;;;;;14.80;2.28;;;;;;;;;;5057007;28;20055;-70
2021/06/28 06:51:53;;;;;;;12.65;2.20;;;;;;;;;;5053731;28;20494;-70
2021/06/28 06:54:21;;;;;;;14.30;1.73;;;;;;;;;;5052447;28;20040;-71
2021/06/28 06:56:48;;;;;;;16.45;2.92;;;;;;;;;;5064476;28;20525;-70
2021/06/28 06:59:15;;;;;;;11.70;2.55;;;;;;;;;;5032807;28;20128;-71
2021/06/28 07:01:42;;;;;;;15.95;2.72;;;;;;;;;;5036498;28;20480;-71
2021/06/28 07:04:09;;;;;;;12.10;2.85;;;;;;;;;;5051382;28;20107;-70
2021/06/28 07:06:36;;;;;;;23.90;4.70;;;;;;;;;;5048411;28;20578;-70
2021/06/28 07:09:04;;;;;;;23.73;4.07;;;;;;;;;;5067592;28;20044;-70
2021/06/28 07:11:31;;;;;;;14.38;2.47;;;;;;;;;;5053841;28;20029;-69
2021/06/28 07:13:59;;;;;;;15.15;2.60;;;;;;;;;;5054062;28;20044;-71
2021/06/28 07:16:32;;;;;;;13.57;3.00;;;;;;;;;;5034714;28;20067;-69
2021/06/28 07:19:00;;;;;;;16.10;2.47;;;;;;;;;;5052027;28;20033;-69
2021/06/28 07:21:28;;;;;;;16.05;2.90;;;;;;;;;;5067889;28;20391;-70
2021/06/28 07:23:56;;;;;;;14.82;2.88;;;;;;;;;;5033896;28;20036;-70
2021/06/28 07:26:25;;;;;;;16.98;3.35;;;;;;;;;;5068910;28;20517;-70
2021/06/28 07:28:56;;;;;;;14.90;3.05;;;;;;;;;;5068087;28;20104;-68
2021/06/28 07:31:23;;;;;;;18.95;2.38;;;;;;;;;;5051993;28;20040;-71
2021/06/28 07:33:51;;;;;;;13.50;1.88;;;;;;;;;;5051734;28;20041;-69
2021/06/28 07:36:18;;;;;;;11.85;2.35;;;;;;;;;;5052891;28;20029;-69
2021/06/28 07:38:45;;;;;;;10.20;2.00;;;;;;;;;;5052748;28;20492;-69
2021/06/28 07:41:12;;;;;;;15.32;2.03;;;;;;;;;;5053393;28;20445;-69
2021/06/28 07:43:39;;;;;;;11.93;1.77;;;;;;;;;;5052341;28;20113;-70
2021/06/28 07:46:07;;;;;;;20.05;2.45;;;;;;;;;;5051163;28;20041;-70
2021/06/28 07:48:34;;;;;;;9.38;1.67;;;;;;;;;;5051925;28;20076;-70
2021/06/28 07:51:01;;;;;;;11.77;1.30;;;;;;;;;;5051160;28;20029;-70
2021/06/28 07:53:28;;;;;;;13.00;1.88;;;;;;;;;;5053047;28;20112;-70
2021/06/28 07:55:55;;;;;;;14.00;2.53;;;;;;;;;;5051653;28;20036;-70
2021/06/28 07:58:23;;;;;;;14.57;2.50;;;;;;;;;;5033314;28;20393;-70
2021/06/28 08:00:50;;;;;;;8.57;1.38;;;;;;;;;;5051835;28;20043;-70
2021/06/28 08:03:17;;;;;;;8.23;2.17;;;;;;;;;;5050920;28;20049;-70
2021/06/28 08:05:44;;;;;;;12.77;1.77;;;;;;;;;;5054216;28;20515;-70
2021/06/28 08:08:11;;;;;;;7.97;1.95;;;;;;;;;;5048640;28;20025;-70
2021/06/28 08:10:38;;;;;;;13.88;2.13;;;;;;;;;;5050038;28;20111;-70
2021/06/28 08:13:05;;;;;;;11.98;2.53;;;;;;;;;;5059884;28;20071;-71
2021/06/28 08:15:33;;;;;;;22.70;4.60;;;;;;;;;;5058319;28;20033;-71
2021/06/28 08:18:00;;;;;;;10.75;3.38;;;;;;;;;;5052124;28;20056;-71
2021/06/28 08:20:27;;;;;;;14.40;3.08;;;;;;;;;;5070906;28;20036;-70
2021/06/28 08:22:54;;;;;;;14.38;2.42;;;;;;;;;;5072094;28;20537;-70
2021/06/28 08:25:24;;;;;;;12.45;3.33;;;;;;;;;;5066700;28;20029;-70
2021/06/28 08:27:51;;;;;;;14.07;2.65;;;;;;;;;;5032473;28;20025;-70
2021/06/28 08:30:19;;;;;;;11.07;2.08;;;;;;;;;;5033412;28;20100;-70
2021/06/28 08:32:46;;;;;;;15.20;2.10;;;;;;;;;;5034983;28;20513;-70
2021/06/28 08:35:13;;;;;;;11.30;2.40;;;;;;;;;;5047589;28;20049;-70
2021/06/28 08:37:40;;;;;;;10.77;2.70;;;;;;;;;;5053405;28;20037;-70
2021/06/28 08:40:09;;;;;;;12.45;3.30;;;;;;;;;;5049763;28;20037;-65
2021/06/28 08:42:37;;;;;;;11.43;2.20;;;;;;;;;;5049922;28;20042;-67
2021/06/28 08:45:04;;;;;;;7.90;2.20;;;;;;;;;;5065651;28;20111;-70
2021/06/28 08:47:33;;;;;;;8.77;1.90;;;;;;;;;;5062035;28;20506;-71
2021/06/28 08:50:00;;;;;;;12.25;2.33;;;;;;;;;;5069498;28;20057;-70
2021/06/28 08:52:29;;;;;;;10.20;1.75;;;;;;;;;;5077908;28;20388;-69
2021/06/28 08:54:56;;;;;;;9.07;1.73;;;;;;;;;;5070212;28;20389;-70
2021/06/28 08:57:23;;;;;;;6.28;1.40;;;;;;;;;;5072080;28;20187;-70
2021/06/28 08:59:52;;;;;;;5.85;1.83;;;;;;;;;;5077759;28;20047;-70
2021/06/28 09:02:19;;;;;;;8.32;2.25;;;;;;;;;;5076325;28;20120;-70
2021/06/28 09:05:00;;;;;;;9.70;2.65;;;;;;;;;;5069951;28;20141;-70
2021/06/28 09:07:27;;;;;;;9.55;2.08;;;;;;;;;;5058993;28;20029;-70
2021/06/28 09:09:54;;;;;;;6.38;1.65;;;;;;;;;;5071893;28;20033;-70
2021/06/28 09:12:21;;;;;;;12.35;1.73;;;;;;;;;;5057600;28;20032;-70
2021/06/28 09:14:56;;;;;;;14.30;2.42;;;;;;;;;;5060220;28;20058;-70
2021/06/28 09:17:29;;;;;;;11.90;1.85;;;;;;;;;;5091761;28;20101;-70
2021/06/28 09:20:19;;;;;;;10.25;1.90;;;;;;;;;;5067735;28;20284;-70
2021/06/28 09:22:47;;;;;;;8.80;1.73;;;;;;;;;;5058819;28;20048;-70
2021/06/28 09:25:31;;;;;;;12.95;2.10;;;;;;;;;;5084694;28;20028;-70
2021/06/28 09:27:58;;;;;;;7.03;2.47;;;;;;;;;;5065492;28;20105;-69
2021/06/28 09:30:26;;;;;;;9.88;2.22;;;;;;;;;;5079957;28;20036;-69
2021/06/28 09:33:01;;;;;;;13.25;2.65;;;;;;;;;;5058368;28;20056;-69
2021/06/28 09:35:37;;;;;;;8.32;2.33;;;;;;;;;;5088510;28;20028;-69
2021/06/28 09:38:29;;;;;;;9.02;2.03;;;;;;;;;;5071184;28;20115;-70
2021/06/28 09:40:56;;;;;;;12.40;3.03;;;;;;;;;;5067023;28;20459;-70
2021/06/28 09:43:28;;;;;;;13.65;4.32;;;;;;;;;;5082700;28;20125;-69
2021/06/28 09:45:55;;;;;;;13.25;4.57;;;;;;;;;;5078793;28;20388;-69
2021/06/28 09:48:27;;;;;;;16.17;4.72;;;;;;;;;;5080541;28;20060;-69
2021/06/28 09:51:12;;;;;;;12.10;3.42;;;;;;;;;;5081207;28;20035;-70
2021/06/28 09:53:39;;;;;;;9.40;3.65;;;;;;;;;;5088289;28;20028;-70
2021/06/28 09:56:07;;;;;;;18.30;4.50;;;;;;;;;;5091704;28;20040;-69
2021/06/28 09:58:34;;;;;;;12.55;4.10;;;;;;;;;;5085095;28;20032;-70
2021/06/28 10:01:03;;;;;;;10.40;4.63;;;;;;;;;;5070018;28;20393;-70
2021/06/28 10:03:35;;;;;;;12.65;4.80;;;;;;;;;;5077609;28;20028;-70
2021/06/28 10:08:48;;;;;;;10.10;4.72;;;;;;;;;;5086670;28;20040;-70
2021/06/28 10:11:20;;;;;;;16.02;4.13;;;;;;;;;;5065637;28;20062;-70
2021/06/28 10:14:00;;;;;;;11.38;3.80;;;;;;;;;;5068989;28;20141;-71
2021/06/28 10:16:28;;;;;;;13.52;4.55;;;;;;;;;;5082677;28;20117;-70
2021/06/28 10:18:56;;;;;;;19.75;6.13;;;;;;;;;;5077981;28;20425;-70
2021/06/28 10:21:24;;;;;;;13.88;5.80;;;;;;;;;;5080242;28;20492;-70
2021/06/28 10:23:51;;;;;;;11.32;5.20;;;;;;;;;;5091496;28;20111;-70
2021/06/28 10:26:19;;;;;;;14.88;4.93;;;;;;;;;;5080106;28;20036;-70
2021/06/28 10:28:47;;;;;;;10.98;5.35;;;;;;;;;;5084673;28;20540;-70
2021/06/28 10:31:14;;;;;;;16.20;5.07;;;;;;;;;;5084533;28;20101;-70
2021/06/28 10:33:43;;;;;;;11.48;4.00;;;;;;;;;;5085927;28;20060;-70
2021/06/28 10:36:13;;;;;;;14.90;4.35;;;;;;;;;;5059726;28;20039;-70
2021/06/28 10:38:47;;;;;;;11.93;4.72;;;;;;;;;;5074418;28;20031;-70
2021/06/28 10:41:15;;;;;;;12.48;4.22;;;;;;;;;;5074953;28;20135;-70
2021/06/28 10:43:42;;;;;;;12.75;3.80;;;;;;;;;;5059171;28;20561;-70
2021/06/28 10:46:11;;;;;;;12.32;3.13;;;;;;;;;;5059733;28;20040;-70
2021/06/28 10:48:45;;;;;;;12.48;3.65;;;;;;;;;;5068620;28;21027;-70
2021/06/28 10:51:13;;;;;;;10.82;4.05;;;;;;;;;;5054337;28;20037;-70
2021/06/28 10:53:40;;;;;;;21.63;4.85;;;;;;;;;;5064246;28;20470;-70
2021/06/28 10:56:26;;;;;;;13.55;4.53;;;;;;;;;;5059340;28;20041;-70
2021/06/28 10:59:06;;;;;;;9.00;4.13;;;;;;;;;;5045647;28;20512;-69
2021/06/28 11:01:35;;;;;;;11.07;3.33;;;;;;;;;;5037092;28;20124;-69
2021/06/28 11:04:06;;;;;;;14.35;4.88;;;;;;;;;;5058997;28;20029;-70
2021/06/28 11:06:33;;;;;;;11.68;4.25;;;;;;;;;;5055816;28;21797;-69
2021/06/28 11:09:10;;;;;;;14.63;4.22;;;;;;;;;;5055094;28;20094;-70
2021/06/28 11:11:46;;;;;;;22.95;4.25;;;;;;;;;;5055045;28;20091;-70
2021/06/28 11:14:20;;;;;;;8.43;3.50;;;;;;;;;;5063077;28;20040;-70
2021/06/28 11:17:06;;;;;;;9.88;3.90;;;;;;;;;;5061992;28;20033;-70
2021/06/28 11:19:53;;;;;;;21.85;5.45;;;;;;;;;;5054239;28;20032;-70
2021/06/28 11:22:26;;;;;;;19.08;6.25;;;;;;;;;;5052098;28;20151;-69
2021/06/28 11:25:04;;;;;;;19.88;5.82;;;;;;;;;;5068516;28;20028;-70
2021/06/28 11:27:31;;;;;;;15.35;5.70;;;;;;;;;;5059708;28;20090;-70
2021/06/28 11:29:59;;;;;;;15.05;6.43;;;;;;;;;;5048161;28;20033;-69
2021/06/28 11:32:27;;;;;;;13.10;6.18;;;;;;;;;;5072390;28;20432;-70
2021/06/28 11:34:55;;;;;;;16.23;6.18;;;;;;;;;;5070309;28;20044;-70
2021/06/28 11:37:23;;;;;;;18.33;7.03;;;;;;;;;;5067312;28;20029;-69
2021/06/28 11:39:55;;;;;;;14.30;5.68;;;;;;;;;;5058890;28;20041;-70
2021/06/28 11:42:25;;;;;;;16.55;6.70;;;;;;;;;;5055674;28;20048;-71
2021/06/28 11:44:53;;;;;;;16.63;6.15;;;;;;;;;;5073111;28;20031;-70
2021/06/28 11:47:40;;;;;;;16.88;6.13;;;;;;;;;;5057480;28;20093;-71
2021/06/28 11:50:25;;;;;;;19.23;6.32;;;;;;;;;;5074766;28;20045;-70
2021/06/28 11:52:57;;;;;;;14.10;5.55;;;;;;;;;;5060671;28;20396;-71
2021/06/28 11:55:25;;;;;;;19.05;5.80;;;;;;;;;;5080218;28;20676;-71
2021/06/28 11:57:52;;;;;;;17.35;6.45;;;;;;;;;;5076245;28;20035;-70
2021/06/28 12:00:20;;;;;;;19.02;5.85;;;;;;;;;;5074092;28;20093;-70
2021/06/28 12:02:47;;;;;;;16.88;5.45;;;;;;;;;;5077856;28;20043;-71
2021/06/28 12:05:25;;;;;;;16.50;6.68;;;;;;;;;;5074580;28;20033;-70
2021/06/28 12:07:52;;;;;;;18.20;6.57;;;;;;;;;;5072965;28;20048;-70
2021/06/28 12:10:22;;;;;;;21.17;5.88;;;;;;;;;;5074130;28;20059;-70
2021/06/28 12:12:56;;;;;;;18.15;5.43;;;;;;;;;;5079200;28;20032;-70
2021/06/28 12:15:27;;;;;;;16.50;5.90;;;;;;;;;;5065923;28;20059;-71
2021/06/28 12:17:54;;;;;;;16.33;5.10;;;;;;;;;;5084833;28;20116;-71
2021/06/28 12:20:21;;;;;;;16.15;5.18;;;;;;;;;;5081457;28;20040;-70
2021/06/28 12:22:51;;;;;;;13.63;5.43;;;;;;;;;;5053617;28;20604;-70
2021/06/28 12:25:21;;;;;;;18.05;5.13;;;;;;;;;;5066630;28;20046;-70
2021/06/28 12:27:49;;;;;;;16.58;6.55;;;;;;;;;;5059450;28;20432;-69
2021/06/28 12:30:21;;;;;;;11.65;4.88;;;;;;;;;;5076058;28;20032;-70
2021/06/28 12:32:52;;;;;;;16.85;5.82;;;;;;;;;;5061154;28;20036;-70
2021/06/28 12:35:22;;;;;;;17.70;6.57;;;;;;;;;;5069318;28;20131;-69
2021/06/28 12:37:51;;;;;;;18.30;6.13;;;;;;;;;;5065645;28;20063;-69
2021/06/28 12:40:32;;;;;;;13.60;5.78;;;;;;;;;;5063164;28;20047;-69
2021/06/28 12:43:01;;;;;;;17.60;6.22;;;;;;;;;;5077434;28;20043;-69
2021/06/28 12:45:42;;;;;;;13.25;6.50;;;;;;;;;;5071575;28;20031;-70
2021/06/28 12:48:15;;;;;;;15.80;6.28;;;;;;;;;;5082466;28;20048;-70
2021/06/28 12:50:42;;;;;;;13.20;6.28;;;;;;;;;;5071297;28;20051;-70
2021/06/28 12:53:13;;;;;;;19.27;6.07;;;;;;;;;;5066569;28;20123;-69
2021/06/28 12:55:41;;;;;;;18.88;5.85;;;;;;;;;;5084431;28;20028;-69
2021/06/28 12:58:13;;;;;;;23.58;6.53;;;;;;;;;;5061566;28;20040;-70
2021/06/28 13:00:40;;;;;;;17.42;6.78;;;;;;;;;;5061791;28;20404;-69
2021/06/28 13:03:12;;;;;;;15.85;6.50;;;;;;;;;;5067189;28;20051;-70
2021/06/28 13:05:40;;;;;;;12.65;6.05;;;;;;;;;;5057202;28;20040;-70
2021/06/28 13:08:08;;;;;;;16.98;6.75;;;;;;;;;;5081686;28;20116;-69
2021/06/28 13:10:36;;;;;;;20.38;5.72;;;;;;;;;;5060112;28;20044;-69
2021/06/28 13:13:19;;;;;;;15.02;6.78;;;;;;;;;;5080113;28;20503;-70
2021/06/28 13:16:07;;;;;;;15.75;6.85;;;;;;;;;;5071124;28;20060;-71
2021/06/28 13:18:34;;;;;;;17.70;6.15;;;;;;;;;;5081507;28;20500;-71
2021/06/28 13:21:03;;;;;;;18.83;6.35;;;;;;;;;;5061187;28;20051;-71
2021/06/28 13:23:30;;;;;;;18.98;6.53;;;;;;;;;;5059696;28;20028;-71
2021/06/28 13:25:57;;;;;;;16.48;6.18;;;;;;;;;;5071582;28;20037;-71
2021/06/28 13:28:24;;;;;;;21.40;7.00;;;;;;;;;;5057809;28;20044;-70
2021/06/28 13:30:59;;;;;;;17.80;6.85;;;;;;;;;;5061941;28;20047;-70
2021/06/28 13:33:26;;;;;;;18.10;6.55;;;;;;;;;;5064032;28;20488;-71
2021/06/28 13:35:53;;;;;;;13.00;6.28;;;;;;;;;;5056115;28;20040;-69
2021/06/28 13:38:21;;;;;;;14.15;6.47;;;;;;;;;;5054271;28;20122;-69
2021/06/28 13:41:00;;;;;;;16.80;6.35;;;;;;;;;;5074373;28;20036;-69
2021/06/28 13:43:28;;;;;;;23.90;7.50;;;;;;;;;;5073933;28;20116;-70
2021/06/28 13:45:55;;;;;;;15.35;6.63;;;;;;;;;;5077835;28;20025;-69
2021/06/28 13:48:27;;;;;;;11.05;6.13;;;;;;;;;;5058250;28;20090;-70
2021/06/28 13:50:54;;;;;;;19.48;7.05;;;;;;;;;;5076816;28;20025;-69
2021/06/28 13:53:25;;;;;;;13.40;6.22;;;;;;;;;;5059072;28;20033;-70
2021/06/28 13:55:54;;;;;;;17.95;6.55;;;;;;;;;;5075580;28;20036;-70
2021/06/28 13:58:22;;;;;;;12.63;5.75;;;;;;;;;;5073548;28;20020;-70
2021/06/28 14:00:50;;;;;;;18.38;5.68;;;;;;;;;;5072751;28;20056;-70
2021/06/28 14:03:18;;;;;;;19.60;6.30;;;;;;;;;;5076005;28;20513;-69
2021/06/28 14:05:45;;;;;;;17.15;6.30;;;;;;;;;;5084500;28;20110;-69
2021/06/28 14:08:14;;;;;;;18.65;6.43;;;;;;;;;;5067334;28;20072;-70
2021/06/28 14:10:41;;;;;;;15.60;5.97;;;;;;;;;;5079897;28;20447;-69
2021/06/28 14:13:09;;;;;;;11.98;5.82;;;;;;;;;;5086472;28;20570;-69
2021/06/28 14:15:37;;;;;;;13.00;5.88;;;;;;;;;;5058035;28;20043;-69
2021/06/28 14:18:04;;;;;;;17.73;6.13;;;;;;;;;;5068474;28;20373;-70
2021/06/28 14:20:32;;;;;;;12.18;6.97;;;;;;;;;;5080066;28;20038;-70
2021/06/28 14:22:59;;;;;;;17.80;5.97;;;;;;;;;;5087192;28;20382;-69
2021/06/28 14:25:26;;;;;;;14.20;5.13;;;;;;;;;;5079008;28;20508;-69
2021/06/28 14:27:53;;;;;;;16.33;5.97;;;;;;;;;;5071902;28;20432;-69
2021/06/28 14:30:21;;;;;;;14.27;5.47;;;;;;;;;;5079767;28;20033;-69
2021/06/28 14:32:50;;;;;;;19.27;5.85;;;;;;;;;;5086332;28;20068;-71
2021/06/28 14:35:17;;;;;;;13.38;5.47;;;;;;;;;;5060330;28;20112;-71
2021/06/28 14:37:45;;;;;;;17.83;5.70;;;;;;;;;;5078016;28;20050;-70
2021/06/28 14:40:12;;;;;;;11.07;5.15;;;;;;;;;;5075211;28;20035;-71
2021/06/28 14:42:40;;;;;;;13.10;6.25;;;;;;;;;;5069129;28;20060;-70
2021/06/28 14:45:08;;;;;;;15.10;6.28;;;;;;;;;;5063662;28;20441;-69